Huntington Park, California
Current Conditions -  °F | °C
As of 9:47 PM on Sunday 23 Nov 2014 (Local Time) from KCQT Reporting Station
Clear Clear  
Wind Chill: 61°   Ceiling: Unl
Heat Index: 61°   Visibility: 10mi
Dew Point: 20°   Wind: 0mph
Humidity: 21%   Direction: NA
Pressure: 30.14"   Gusts: NA
Location:  33.98°N, 118.21°W
Report Text: KCQT 240547Z AUTO 00000KT 10SM CLR 16/M07 A3014 RMK AO2 SLP206 T01611067 10250 20156 51016
Loading
Personal Weather Stations






























Interactive Weather Map New forecast layout! Learn more

10-Day Weather Forecast

Advertisements
Track Severe Weather on mobile